Nearby METAR Reports


KPAM - Tyndall AFB, FL, USA
Distance from station: SSE 4mi, 7km
Updated: Tue, 14-Aug-2018 1:56pm CDT
Partly cloudy
Partly cloudy
 Wind from SW
Wind: SW 12 mph , 19 km/h
Temperature: 88°F , 31°C
Heat Index: 98°F , 37°C
Dew Point: 75°F , 24°C
Humidity: 66%
Barometer: 30.01 inHg , 1016.3 hPa
Clouds: Partly cloudy
Visibility: 10 miles , 16 km
Cloud details: Few Clouds 3000 ft
Partly cloudy 20000 ft
Partly cloudy 25000 ft
2018/08/14 18:56 KPAM 141856Z 23010KT 10SM FEW030 SCT200 SCT250 31/24 A3001 RMK AO2A SLP165 T03090243 $
KECP - Panama City Beach, FL, USA
Distance from station: NW 20mi, 32km
Updated: Tue, 14-Aug-2018 1:56pm CDT
Mostly cloudy
Mostly cloudy
 Wind from S
Wind: S 9 mph , 15 km/h
Temperature: 88°F , 31°C
Heat Index: 96°F , 36°C
Dew Point: 73°F , 23°C
Humidity: 62%
Barometer: 30.00 inHg , 1015.9 hPa
Clouds: Mostly cloudy
Visibility: 10 miles , 16 km
Cloud details: Partly cloudy 3500 ft
Partly cloudy 4400 ft
Mostly cloudy 11000 ft
2018/08/14 18:56 KECP 141856Z 17008KT 10SM SCT035 SCT044 BKN110 31/23 A3000 RMK AO2 LTG DSNT N AND NE RAE56 TSE56 P0000 T03060233
 
KAAF - Apalachicola, FL, USA
Distance from station: SE 43mi, 69km
Updated: Tue, 14-Aug-2018 2:30pm CDT
Nearby thunderstorm, Few clouds
Nearby thunderstorm, Few clouds
 Wind from S
Wind: S 10 mph , 17 km/h
Temperature: 86°F , 30°C
Heat Index: 99°F , 37°C
Dew Point: 79°F , 26°C
Humidity: 79%
Barometer: 30.01 inHg , 1016.3 hPa
Summary: Nearby Thunderstorm
Clouds: Few Clouds
Visibility: 10 miles , 16 km
Cloud details: Few Clouds 2300 ft
2018/08/14 19:30 KAAF 141930Z AUTO 18009KT 10SM VCTS FEW023 30/26 A3001 RMK AO2 LTG DSNT NW-NE T03000256
KMAI - Marianna, FL, USA
Distance from station: NNE 55mi, 88km
Updated: Tue, 14-Aug-2018 1:53pm CDT
Partly cloudy
Partly cloudy
 Wind from calm
Wind: Calm
Temperature: 91°F , 33°C
Heat Index: 102°F , 39°C
Dew Point: 75°F , 24°C
Humidity: 59%
Barometer: 29.99 inHg , 1015.6 hPa
Clouds: Partly cloudy
Visibility: 10 miles , 16 km
Cloud details: Partly cloudy 4000 ft
2018/08/14 18:53 KMAI 141853Z AUTO 00000KT 10SM SCT040 33/24 A2999 RMK AO2 LTG DSNT SW SLP152 T03280239
 
KDTS - Destin, FL, USA
Distance from station: WNW 56mi, 90km
Updated: Tue, 14-Aug-2018 1:53pm CDT
Light rain, Mostly cloudy
Light rain, Mostly cloudy
 Wind from WSW
Wind: WSW 6 mph , 9 km/h
Temperature: 84°F , 29°C
Heat Index: 92°F , 33°C
Dew Point: 75°F , 24°C
Humidity: 74%
Barometer: 30.01 inHg , 1016.3 hPa
Summary: Light rain
Clouds: Mostly cloudy
Visibility: 10 miles , 16 km
Cloud details: Few Clouds 7000 ft
Partly cloudy 10000 ft
Mostly cloudy 12000 ft
2018/08/14 18:53 KDTS 141853Z 25005KT 10SM -RA FEW070 SCT100 BKN120 29/24 A3001 RMK AO2 LTG DSNT NW-NE RAB49 SLP162 P0000 T02940244
KVPS - Valpariso-Eglin AFB, FL, USA
Distance from station: WNW 60mi, 97km
Updated: Tue, 14-Aug-2018 2:14pm CDT
Mostly cloudy
Mostly cloudy
 Wind from WNW
Wind: WNW 3 mph , 6 km/h
Temperature: 82°F , 28°C
Heat Index: 87°F , 31°C
Dew Point: 73°F , 23°C
Humidity: 74%
Barometer: 30.00 inHg , 1015.9 hPa
Clouds: Mostly cloudy
Visibility: 10 miles , 16 km
Cloud details: Few Clouds 3000 ft
Few Clouds 15000 ft
Partly cloudy 18000 ft
Mostly cloudy 25000 ft
2018/08/14 19:14 KVPS 141914Z 30003KT 10SM FEW030 FEW150 SCT180 BKN250 28/23 A3000 RMK AO2A LTG DSNT NE TS 28NE AND 16NE MOV E CB 20W AND 23NE MOV E MDT CU W-NW $
 
KEGI - Duke Field, FL, USA
Distance from station: WNW 66mi, 105km
Updated: Tue, 14-Aug-2018 2:19pm CDT
Light rain, Mostly cloudy
Light rain, Mostly cloudy
 Wind from SE
Wind: SE 3 mph , 6 km/h
Temperature: 77°F , 25°C
Dew Point: 75°F , 24°C
Humidity: 94%
Barometer: 30.00 inHg , 1015.9 hPa
Summary: Light rain
Clouds: Mostly cloudy
Visibility: 10 miles , 16 km
Cloud details: Partly cloudy 2900 ft
Mostly cloudy 6500 ft
Mostly cloudy 12000 ft
2018/08/14 19:19 KEGI 141919Z 14003KT 10SM -RA SCT029 BKN065 BKN120 25/24 A3000 RMK LTG DSNT NE-E TS 12NE MOV E $
KHRT - Hurlburt Field, FL, USA
Distance from station: WNW 67mi, 108km
Updated: Tue, 14-Aug-2018 1:57pm CDT
Light rain, Nearby thunderstorm, Mostly cloudy
Light rain, Nearby thunderstorm, Mostly cloudy
 Wind from calm
Wind: Calm
Temperature: 81°F , 27°C
Heat Index: 85°F , 29°C
Dew Point: 72°F , 22°C
Humidity: 74%
Barometer: 30.01 inHg , 1016.3 hPa
Summary: Light rain, Nearby thunderstorm
Clouds: Mostly cloudy
Visibility: 10 miles , 16 km
Cloud details: Few Clouds 4700 ft
Partly cloudy 6000 ft
Mostly cloudy 14000 ft
2018/08/14 18:57 KHRT 141857Z 00000KT 10SM -RA VCTS FEW047 SCT060 BKN140 27/22 A3001 RMK TSE44 SLP164 P0001 T02670221 $
 
KCEW - Crestview, FL, USA
Distance from station: NW 72mi, 115km
Updated: Tue, 14-Aug-2018 2:38pm CDT
Mostly cloudy
Mostly cloudy
 Wind from SSW
Wind: SSW 6 mph , 9 km/h
Temperature: 82°F , 28°C
Heat Index: 86°F , 30°C
Dew Point: 72°F , 22°C
Humidity: 70%
Barometer: 30.02 inHg , 1016.6 hPa
Clouds: Mostly cloudy
Visibility: 10 miles , 16 km
Cloud details: Partly cloudy 10000 ft
Mostly cloudy 12000 ft
2018/08/14 19:38 KCEW 141938Z AUTO 20005KT 10SM SCT100 BKN120 28/22 A3002 RMK AO2 LTG DSNT NE AND E RAE06 TSE02 P0000 T02830217
KTLH - Tallahassee, FL, USA
Distance from station: ENE 77mi, 123km
Updated: Tue, 14-Aug-2018 2:25pm CDT
Light rain, Mostly cloudy
Light rain, Mostly cloudy
 Wind from SSE
Wind: SSE 5 mph , 7 km/h
Temperature: 77°F , 25°C
Dew Point: 73°F , 23°C
Humidity: 89%
Barometer: 30.01 inHg , 1016.3 hPa
Summary: Light rain
Clouds: Mostly cloudy
Visibility: 10 miles , 16 km
Cloud details: Few Clouds 7500 ft
Mostly cloudy 11000 ft
2018/08/14 19:25 KTLH 141925Z 16004KT 10SM -RA FEW075 BKN110 25/23 A3001 RMK AO2 LTG DSNT ALQDS TSE19 CB DSNT NW-E AND SW P0003 T02500233
 
KOZR - Cairns AAF, AL, USA
Distance from station: N 81mi, 130km
Updated: Tue, 14-Aug-2018 2:27pm CDT
Few Clouds
Few Clouds
 Wind from SSE
Wind: SSE 8 mph , 13 km/h
Temperature: 93°F , 34°C
Heat Index: 100°F , 38°C
Dew Point: 72°F , 22°C
Humidity: 49%
Barometer: 29.98 inHg , 1015.2 hPa
Clouds: Few Clouds
Visibility: 10 miles , 16 km
Cloud details: Few Clouds 14000 ft
Few Clouds 18000 ft
2018/08/14 19:27 KOZR 141927Z AUTO 15007KT 10SM FEW140 FEW180 34/22 A2998 RMK AO2 SLP151 $
KDHN - Dothan, AL, USA
Distance from station: N 83mi, 134km
Updated: Tue, 14-Aug-2018 1:53pm CDT
Partly cloudy
Partly cloudy
 Wind from varies
Wind: varies 3 mph , 6 km/h
Temperature: 91°F , 33°C
Heat Index: 98°F , 37°C
Dew Point: 72°F , 22°C
Humidity: 52%
Barometer: 30.04 inHg , 1017.3 hPa
Clouds: Partly cloudy
Visibility: 10 miles , 16 km
Cloud details: Partly cloudy 4100 ft
2018/08/14 18:53 KDHN 141853Z VRB03KT 10SM SCT041 33/22 A3004 RMK AO2 SLP165 T03330217